createdAt,value
2022-10-31T00:00:49.246Z,14.50
2022-10-31T00:03:17.913Z,14.50
2022-10-31T00:05:49.809Z,14.40
2022-10-31T00:08:18.521Z,14.40
2022-10-31T00:10:46.373Z,14.20
2022-10-31T00:13:15.029Z,14.20
2022-10-31T00:15:42.364Z,14.20
2022-10-31T00:18:10.921Z,14.30
2022-10-31T00:20:38.593Z,14.20
2022-10-31T00:23:07.433Z,14.20
2022-10-31T00:25:37.970Z,14.10
2022-10-31T00:28:06.741Z,14.10
2022-10-31T00:30:34.099Z,14.00
2022-10-31T00:33:01.197Z,13.90
2022-10-31T00:35:28.643Z,13.80
2022-10-31T00:37:55.621Z,13.80
2022-10-31T00:40:22.567Z,13.70
2022-10-31T00:42:49.527Z,13.70
2022-10-31T00:45:16.460Z,13.60
2022-10-31T00:47:43.195Z,13.80
2022-10-31T00:50:10.259Z,13.70
2022-10-31T00:52:37.069Z,13.70
2022-10-31T00:55:04.133Z,13.80
2022-10-31T00:57:31.278Z,13.70
2022-10-31T00:59:58.110Z,13.60
2022-10-31T01:02:25.286Z,13.60
2022-10-31T01:04:52.250Z,13.60
2022-10-31T01:07:19.058Z,13.70
2022-10-31T01:09:45.880Z,13.70
2022-10-31T01:12:12.798Z,13.80
2022-10-31T01:14:39.575Z,13.70
2022-10-31T01:17:06.312Z,13.70
2022-10-31T01:19:33.203Z,13.60
2022-10-31T01:22:00.061Z,13.60
2022-10-31T01:24:27.059Z,13.70
2022-10-31T01:26:54.326Z,13.60
2022-10-31T01:29:21.165Z,13.50
2022-10-31T01:31:48.018Z,13.50
2022-10-31T01:34:17.171Z,13.40
2022-10-31T01:36:52.483Z,13.40
2022-10-31T01:39:20.427Z,13.50
2022-10-31T01:41:50.486Z,13.60
2022-10-31T01:44:17.458Z,13.60
2022-10-31T01:46:46.393Z,13.50
2022-10-31T01:49:31.529Z,13.60
2022-10-31T01:52:00.714Z,13.60
2022-10-31T01:54:31.739Z,13.60
2022-10-31T01:57:01.942Z,13.60
2022-10-31T01:59:32.062Z,13.60
2022-10-31T02:02:00.345Z,13.50
2022-10-31T02:04:28.712Z,13.60
2022-10-31T02:07:04.533Z,13.60
2022-10-31T02:09:34.347Z,13.50
2022-10-31T02:12:02.307Z,13.50
2022-10-31T02:14:31.373Z,13.50
2022-10-31T02:16:59.125Z,13.50
2022-10-31T02:19:36.858Z,13.50
2022-10-31T02:22:30.554Z,13.50
2022-10-31T02:25:25.873Z,13.50
2022-10-31T02:28:14.318Z,13.50
2022-10-31T02:31:13.039Z,13.50
2022-10-31T02:33:57.347Z,13.40
2022-10-31T02:36:37.744Z,13.30
2022-10-31T02:39:10.435Z,13.30
2022-10-31T02:41:55.850Z,13.30
2022-10-31T02:44:31.076Z,13.30
2022-10-31T02:47:18.019Z,13.20
2022-10-31T02:49:59.296Z,13.10
2022-10-31T02:52:32.678Z,13.10
2022-10-31T02:55:00.134Z,13.10
2022-10-31T02:57:31.018Z,13.10
2022-10-31T03:00:09.299Z,13.00
2022-10-31T03:02:50.689Z,12.90
2022-10-31T03:05:44.900Z,12.90
2022-10-31T03:08:25.262Z,12.90
2022-10-31T03:10:59.741Z,12.80
2022-10-31T03:13:32.815Z,12.80
2022-10-31T03:16:41.185Z,12.80
2022-10-31T03:19:34.204Z,12.90
2022-10-31T03:22:28.607Z,12.90
2022-10-31T03:24:57.312Z,12.90
2022-10-31T03:27:28.718Z,12.90
2022-10-31T03:29:58.757Z,12.90
2022-10-31T03:32:33.919Z,12.90
2022-10-31T03:35:05.054Z,12.90
2022-10-31T03:37:35.084Z,13.00
2022-10-31T03:40:04.142Z,12.90
2022-10-31T03:42:34.981Z,13.00
2022-10-31T03:45:15.746Z,13.10
2022-10-31T03:47:45.127Z,13.00
2022-10-31T03:50:14.754Z,13.00
2022-10-31T03:52:48.866Z,13.00
2022-10-31T03:55:30.863Z,12.90
2022-10-31T03:58:05.023Z,12.80
2022-10-31T04:00:33.392Z,13.00
2022-10-31T04:03:20.027Z,12.90
2022-10-31T04:05:49.227Z,12.80
2022-10-31T04:08:19.972Z,12.80
2022-10-31T04:10:49.846Z,12.80
2022-10-31T04:13:23.152Z,12.70
2022-10-31T04:15:53.121Z,12.70
2022-10-31T04:18:20.322Z,12.60
2022-10-31T04:20:52.115Z,12.70
2022-10-31T04:23:21.600Z,12.70
2022-10-31T04:25:48.699Z,12.60
2022-10-31T04:28:15.817Z,12.70
2022-10-31T04:30:42.697Z,12.70
2022-10-31T04:33:09.863Z,12.80
2022-10-31T04:35:36.751Z,12.80
2022-10-31T04:38:03.657Z,12.90
2022-10-31T04:40:31.574Z,13.00
2022-10-31T04:42:58.909Z,12.80
2022-10-31T04:45:25.911Z,12.90
2022-10-31T04:47:52.829Z,12.90
2022-10-31T04:50:20.105Z,12.80
2022-10-31T04:52:47.469Z,12.80
2022-10-31T04:55:14.887Z,12.70
2022-10-31T04:57:47.368Z,12.60
2022-10-31T05:00:16.495Z,12.50
2022-10-31T05:02:48.967Z,12.60
2022-10-31T05:05:17.827Z,12.60
2022-10-31T05:07:46.399Z,12.60
2022-10-31T05:10:19.329Z,12.60
2022-10-31T05:13:01.674Z,12.50
2022-10-31T05:15:29.225Z,12.50
2022-10-31T05:17:56.744Z,12.50
2022-10-31T05:20:26.699Z,12.50
2022-10-31T05:22:55.803Z,12.70
2022-10-31T05:25:24.685Z,12.60
2022-10-31T05:27:53.682Z,12.90
2022-10-31T05:30:25.144Z,12.70
2022-10-31T05:32:53.131Z,12.80
2022-10-31T05:35:26.271Z,12.60
2022-10-31T05:37:53.402Z,12.50
2022-10-31T05:40:21.246Z,12.40
2022-10-31T05:42:48.318Z,12.50
2022-10-31T05:45:17.831Z,12.60
2022-10-31T05:47:52.501Z,12.80
2022-10-31T05:50:20.010Z,12.80
2022-10-31T05:52:47.031Z,12.90
2022-10-31T05:55:14.329Z,13.00
2022-10-31T05:57:41.258Z,13.00
2022-10-31T06:00:09.090Z,13.10
2022-10-31T06:02:37.090Z,13.10
2022-10-31T06:05:04.687Z,13.10
2022-10-31T06:07:35.784Z,13.00
2022-10-31T06:10:04.932Z,13.00
2022-10-31T06:12:32.684Z,13.00
2022-10-31T06:15:05.573Z,13.00
2022-10-31T06:17:32.723Z,13.10
2022-10-31T06:19:59.880Z,13.00
2022-10-31T06:22:26.951Z,13.00
2022-10-31T06:24:53.901Z,13.00
2022-10-31T06:27:20.845Z,13.10
2022-10-31T06:29:48.294Z,13.10
2022-10-31T06:32:15.607Z,13.00
2022-10-31T06:34:43.395Z,13.00
2022-10-31T06:37:12.926Z,12.90
2022-10-31T06:39:40.291Z,13.00
2022-10-31T06:42:08.091Z,13.10
2022-10-31T06:44:35.093Z,13.10
2022-10-31T06:47:01.838Z,13.20
2022-10-31T06:49:28.687Z,13.20
2022-10-31T06:51:55.678Z,13.20
2022-10-31T06:54:23.125Z,13.30
2022-10-31T06:56:50.272Z,13.40
2022-10-31T06:59:17.743Z,13.30
2022-10-31T07:01:45.511Z,13.40
2022-10-31T07:04:13.143Z,13.40
2022-10-31T07:06:40.130Z,13.40
2022-10-31T07:09:07.288Z,13.40
2022-10-31T07:11:34.573Z,13.30
2022-10-31T07:14:01.485Z,13.40
2022-10-31T07:16:28.585Z,13.50
2022-10-31T07:18:55.599Z,13.40
2022-10-31T07:21:22.401Z,13.50
2022-10-31T07:23:50.331Z,13.50
2022-10-31T07:26:17.497Z,13.50
2022-10-31T07:28:44.432Z,13.50
2022-10-31T07:31:11.490Z,13.60
2022-10-31T07:33:38.428Z,13.60
2022-10-31T07:36:05.585Z,13.60
2022-10-31T07:38:34.234Z,13.60
2022-10-31T07:41:01.798Z,13.70
2022-10-31T07:43:28.834Z,13.70
2022-10-31T07:45:56.291Z,13.70
2022-10-31T07:48:23.811Z,13.80
2022-10-31T07:50:50.758Z,13.90
2022-10-31T07:53:17.766Z,13.90
2022-10-31T07:55:44.958Z,13.80
2022-10-31T07:58:14.531Z,13.80
2022-10-31T08:00:45.867Z,13.70
2022-10-31T08:03:18.394Z,13.90
2022-10-31T08:05:47.029Z,14.00
2022-10-31T08:08:15.144Z,14.00
2022-10-31T08:10:42.825Z,13.90
2022-10-31T08:13:12.910Z,14.10
2022-10-31T08:15:43.083Z,14.10
2022-10-31T08:18:14.800Z,14.20
2022-10-31T08:20:43.514Z,14.20
2022-10-31T08:23:12.450Z,14.30
2022-10-31T08:25:39.639Z,14.30
2022-10-31T08:28:08.131Z,14.40
2022-10-31T08:30:37.641Z,14.40
2022-10-31T08:33:16.484Z,14.50
2022-10-31T08:35:44.069Z,14.50
2022-10-31T08:38:12.893Z,14.50
2022-10-31T08:40:40.772Z,14.50
2022-10-31T08:43:14.567Z,14.50
2022-10-31T08:45:42.465Z,14.60
2022-10-31T08:48:18.656Z,14.60
2022-10-31T08:50:46.957Z,14.70
2022-10-31T08:53:16.843Z,14.70
2022-10-31T08:55:44.918Z,14.70
2022-10-31T08:58:14.856Z,14.70
2022-10-31T09:00:42.254Z,14.80
2022-10-31T09:03:18.385Z,14.90
2022-10-31T09:05:46.963Z,15.00
2022-10-31T09:08:17.226Z,14.90
2022-10-31T09:10:45.226Z,15.10
2022-10-31T09:13:15.789Z,15.30
2022-10-31T09:15:45.373Z,15.20
2022-10-31T09:18:14.014Z,15.20
2022-10-31T09:20:42.894Z,15.30
2022-10-31T09:23:18.489Z,15.40
2022-10-31T09:25:50.466Z,15.20
2022-10-31T09:28:21.704Z,15.10
2022-10-31T09:30:50.734Z,15.30
2022-10-31T09:33:18.271Z,15.40
2022-10-31T09:35:45.955Z,15.50
2022-10-31T09:38:15.603Z,15.40
2022-10-31T09:41:10.236Z,15.60
2022-10-31T09:44:03.744Z,15.80
2022-10-31T09:46:54.592Z,15.90
2022-10-31T09:49:38.851Z,16.00
2022-10-31T09:52:37.763Z,16.10
2022-10-31T09:55:20.366Z,16.10
2022-10-31T09:57:49.193Z,16.10
2022-10-31T10:00:19.490Z,16.20
2022-10-31T10:02:49.337Z,16.30
2022-10-31T10:05:25.398Z,16.40
2022-10-31T10:08:13.879Z,16.50
2022-10-31T10:11:06.715Z,16.60
2022-10-31T10:13:59.115Z,16.70
2022-10-31T10:16:34.610Z,16.70
2022-10-31T10:19:11.472Z,17.00
2022-10-31T10:21:58.130Z,17.40
2022-10-31T10:24:51.774Z,17.80
2022-10-31T10:27:25.643Z,17.90
2022-10-31T10:29:58.374Z,18.30
2022-10-31T10:32:28.536Z,18.70
2022-10-31T10:35:21.600Z,18.90
2022-10-31T10:37:52.705Z,19.00
2022-10-31T10:40:23.938Z,19.00
2022-10-31T10:43:20.138Z,19.30
2022-10-31T10:46:20.808Z,19.40
2022-10-31T10:49:15.457Z,19.50
2022-10-31T10:52:13.225Z,19.70
2022-10-31T10:54:55.834Z,19.60
2022-10-31T10:57:54.973Z,19.50
2022-10-31T11:00:26.356Z,19.40
2022-10-31T11:02:54.589Z,19.40
2022-10-31T11:05:46.497Z,19.50
2022-10-31T11:08:27.443Z,19.70
2022-10-31T11:11:03.073Z,19.50
2022-10-31T11:13:31.747Z,19.50
2022-10-31T11:16:09.988Z,19.30
2022-10-31T11:18:44.609Z,19.30
2022-10-31T11:21:29.698Z,19.20
2022-10-31T11:24:11.899Z,19.20
2022-10-31T11:26:40.541Z,19.20
2022-10-31T11:29:21.344Z,19.30
2022-10-31T11:31:50.643Z,19.50
2022-10-31T11:34:30.329Z,19.60
2022-10-31T11:37:20.114Z,19.90
2022-10-31T11:39:54.827Z,19.90
2022-10-31T11:42:52.692Z,19.70
2022-10-31T11:45:37.989Z,19.60
2022-10-31T11:48:18.017Z,19.60
2022-10-31T11:50:51.095Z,19.40
2022-10-31T11:53:34.736Z,19.50
2022-10-31T11:56:15.259Z,19.70
2022-10-31T11:58:43.399Z,19.50
2022-10-31T12:01:27.137Z,19.40
2022-10-31T12:04:14.049Z,19.30
2022-10-31T12:06:43.903Z,19.40
2022-10-31T12:09:20.321Z,19.40
2022-10-31T12:12:07.675Z,19.30
2022-10-31T12:14:37.665Z,19.20
2022-10-31T12:17:31.328Z,19.20
2022-10-31T12:20:26.065Z,19.30
2022-10-31T12:23:16.054Z,19.10
2022-10-31T12:26:08.821Z,19.20
2022-10-31T12:28:37.346Z,19.10
2022-10-31T12:31:23.916Z,19.10
2022-10-31T12:34:22.196Z,19.20
2022-10-31T12:37:16.900Z,19.20
2022-10-31T12:40:02.211Z,19.30
2022-10-31T12:43:16.749Z,19.20
2022-10-31T12:45:50.641Z,19.20
2022-10-31T12:48:26.392Z,19.30
2022-10-31T12:51:12.784Z,19.30
2022-10-31T12:54:16.632Z,19.20
2022-10-31T12:56:50.043Z,19.30
2022-10-31T12:59:48.785Z,19.40
2022-10-31T13:02:19.633Z,19.50
2022-10-31T13:04:52.797Z,19.60
2022-10-31T13:07:26.543Z,19.60
2022-10-31T13:10:06.545Z,19.60
2022-10-31T13:12:37.422Z,19.60
2022-10-31T13:15:19.249Z,19.60
2022-10-31T13:18:00.098Z,19.60
2022-10-31T13:20:53.103Z,19.90
2022-10-31T13:26:29.219Z,20.10
2022-10-31T13:29:13.274Z,20.10
2022-10-31T13:31:44.746Z,20.10
2022-10-31T13:34:40.375Z,20.10
2022-10-31T13:37:13.465Z,20.10
2022-10-31T13:39:46.322Z,20.00
2022-10-31T13:42:18.475Z,20.00
2022-10-31T13:44:45.443Z,19.90
2022-10-31T13:47:27.993Z,19.90
2022-10-31T13:50:25.648Z,20.00
2022-10-31T13:52:53.213Z,20.00
2022-10-31T13:55:43.521Z,20.00
2022-10-31T13:58:30.533Z,20.00
2022-10-31T14:01:20.944Z,20.00
2022-10-31T14:04:07.874Z,19.90
2022-10-31T14:06:56.173Z,19.80
2022-10-31T14:09:26.619Z,19.80
2022-10-31T14:11:54.578Z,19.80
2022-10-31T14:14:23.656Z,19.90
2022-10-31T14:16:58.169Z,19.90
2022-10-31T14:19:26.956Z,19.90
2022-10-31T14:21:54.267Z,20.00
2022-10-31T14:24:24.297Z,20.00
2022-10-31T14:27:29.515Z,20.10
2022-10-31T14:29:56.673Z,20.50
2022-10-31T14:32:26.491Z,20.90
2022-10-31T14:34:58.495Z,21.10
2022-10-31T14:37:58.578Z,21.30
2022-10-31T14:40:32.814Z,21.50
2022-10-31T14:43:37.049Z,21.50
2022-10-31T14:46:19.255Z,21.20
2022-10-31T14:49:18.355Z,21.00
2022-10-31T14:51:48.075Z,20.90
2022-10-31T14:54:35.163Z,20.80
2022-10-31T14:57:29.809Z,20.70
2022-10-31T15:00:06.622Z,20.50
2022-10-31T15:02:54.104Z,20.40
2022-10-31T15:05:21.959Z,20.30
2022-10-31T15:07:59.752Z,20.20
2022-10-31T15:10:37.822Z,20.20
2022-10-31T15:13:22.573Z,20.10
2022-10-31T15:15:53.378Z,20.10
2022-10-31T15:18:27.410Z,20.00
2022-10-31T15:20:57.128Z,19.90
2022-10-31T15:23:29.318Z,19.90
2022-10-31T15:26:01.994Z,19.90
2022-10-31T15:28:29.868Z,19.80
2022-10-31T15:31:02.103Z,19.70
2022-10-31T15:33:38.319Z,19.70
2022-10-31T15:36:06.722Z,19.60
2022-10-31T15:38:40.126Z,19.50
2022-10-31T15:41:26.861Z,19.40
2022-10-31T15:43:54.093Z,19.40
2022-10-31T15:46:21.383Z,19.30
2022-10-31T15:48:49.941Z,19.30
2022-10-31T15:51:17.411Z,19.20
2022-10-31T15:53:53.967Z,19.10
2022-10-31T15:56:33.101Z,19.30
2022-10-31T15:59:02.397Z,19.10
2022-10-31T16:01:32.500Z,18.90
2022-10-31T16:04:23.021Z,18.70
2022-10-31T16:07:18.756Z,18.90
2022-10-31T16:10:03.638Z,18.80
2022-10-31T16:12:46.797Z,18.80
2022-10-31T16:15:20.413Z,18.70
2022-10-31T16:17:49.820Z,18.60
2022-10-31T16:20:26.076Z,18.50
2022-10-31T16:22:54.665Z,18.50
2022-10-31T16:25:28.261Z,18.50
2022-10-31T16:27:58.237Z,18.40
2022-10-31T16:30:41.700Z,18.30
2022-10-31T16:33:30.503Z,18.30
2022-10-31T16:36:09.544Z,18.20
2022-10-31T16:38:43.128Z,18.10
2022-10-31T16:41:10.215Z,18.20
2022-10-31T16:43:37.130Z,18.20
2022-10-31T16:46:05.053Z,18.00
2022-10-31T16:48:32.069Z,18.10
2022-10-31T16:50:58.775Z,18.00
2022-10-31T16:53:25.662Z,17.90
2022-10-31T16:55:57.401Z,17.90
2022-10-31T16:58:30.767Z,18.00
2022-10-31T17:00:58.746Z,18.10
2022-10-31T17:03:26.377Z,18.00
2022-10-31T17:05:56.260Z,18.00
2022-10-31T17:08:24.803Z,17.80
2022-10-31T17:10:57.162Z,17.80
2022-10-31T17:13:29.902Z,17.80
2022-10-31T17:15:59.924Z,17.80
2022-10-31T17:18:28.074Z,18.00
2022-10-31T17:21:01.422Z,17.90
2022-10-31T17:23:29.448Z,17.90
2022-10-31T17:25:57.420Z,17.70
2022-10-31T17:28:27.147Z,17.70
2022-10-31T17:30:59.294Z,17.50
2022-10-31T17:33:26.580Z,17.40
2022-10-31T17:35:53.574Z,17.60
2022-10-31T17:38:20.628Z,17.50
2022-10-31T17:43:15.406Z,17.50
2022-10-31T17:45:42.726Z,17.50
2022-10-31T17:48:13.396Z,17.60
2022-10-31T17:50:40.689Z,17.70
2022-10-31T17:53:07.765Z,17.90
2022-10-31T17:55:37.195Z,17.80
2022-10-31T17:58:05.887Z,17.80
2022-10-31T18:00:33.999Z,17.90
2022-10-31T18:03:04.434Z,18.00
2022-10-31T18:05:34.553Z,18.00
2022-10-31T18:08:04.079Z,18.00
2022-10-31T18:10:32.365Z,18.00
2022-10-31T18:12:59.652Z,18.00
2022-10-31T18:15:29.720Z,18.00
2022-10-31T18:17:56.653Z,18.00
2022-10-31T18:20:23.667Z,17.90
2022-10-31T18:22:50.789Z,18.00
2022-10-31T18:25:18.152Z,17.80
2022-10-31T18:27:45.171Z,17.90
2022-10-31T18:30:12.911Z,17.80
2022-10-31T18:32:40.591Z,17.70
2022-10-31T18:35:07.963Z,17.80
2022-10-31T18:37:34.962Z,17.80
2022-10-31T18:40:01.802Z,17.90
2022-10-31T18:42:28.535Z,17.80
2022-10-31T18:44:55.468Z,17.80
2022-10-31T18:47:32.204Z,17.80
2022-10-31T18:49:59.499Z,18.00
2022-10-31T18:52:31.122Z,18.00
2022-10-31T18:54:58.143Z,18.00
2022-10-31T18:57:25.158Z,17.90
2022-10-31T18:59:52.037Z,17.90
2022-10-31T19:02:19.087Z,17.70
2022-10-31T19:04:50.730Z,17.80
2022-10-31T19:10:11.284Z,17.90
2022-10-31T19:12:38.448Z,18.00
2022-10-31T19:15:06.797Z,18.00
2022-10-31T19:17:34.486Z,18.10
2022-10-31T19:20:01.535Z,18.20
2022-10-31T19:22:32.123Z,18.10
2022-10-31T19:24:59.026Z,18.10
2022-10-31T19:27:28.110Z,18.10
2022-10-31T19:29:55.361Z,18.20
2022-10-31T19:32:22.319Z,18.30
2022-10-31T19:34:49.650Z,18.30
2022-10-31T19:37:16.554Z,18.20
2022-10-31T19:39:44.467Z,18.20
2022-10-31T19:42:11.568Z,18.20
2022-10-31T19:44:38.401Z,18.20
2022-10-31T19:47:05.446Z,18.20
2022-10-31T19:49:32.447Z,18.10
2022-10-31T19:51:59.528Z,18.00
2022-10-31T19:54:26.654Z,18.00
2022-10-31T19:56:53.755Z,18.10
2022-10-31T19:59:20.668Z,18.00
2022-10-31T20:01:47.690Z,18.00
2022-10-31T20:04:14.665Z,18.00
2022-10-31T20:06:42.191Z,18.10
2022-10-31T20:09:14.055Z,18.10
2022-10-31T20:11:42.605Z,18.00
2022-10-31T20:14:12.751Z,18.00
2022-10-31T20:16:40.649Z,18.10
2022-10-31T20:19:07.983Z,18.20
2022-10-31T20:21:40.209Z,18.20
2022-10-31T20:24:08.997Z,18.20
2022-10-31T20:26:37.599Z,18.20
2022-10-31T20:29:05.130Z,18.30
2022-10-31T20:31:36.154Z,18.40
2022-10-31T20:34:03.809Z,18.30
2022-10-31T20:36:31.972Z,18.30
2022-10-31T20:39:00.691Z,18.40
2022-10-31T20:41:28.092Z,18.40
2022-10-31T20:43:55.332Z,18.40
2022-10-31T20:46:24.966Z,18.50
2022-10-31T20:48:53.634Z,18.50
2022-10-31T20:51:23.293Z,18.50
2022-10-31T20:53:56.544Z,18.50
2022-10-31T20:56:26.003Z,18.50
2022-10-31T20:58:55.000Z,18.60
2022-10-31T21:01:24.781Z,18.40
2022-10-31T21:03:53.467Z,18.50
2022-10-31T21:06:23.189Z,18.50
2022-10-31T21:08:51.117Z,18.40
2022-10-31T21:11:21.524Z,18.20
2022-10-31T21:13:49.590Z,18.20
2022-10-31T21:16:20.946Z,18.20
2022-10-31T21:18:49.705Z,18.20
2022-10-31T21:21:20.193Z,18.20
2022-10-31T21:23:47.688Z,18.30
2022-10-31T21:26:18.001Z,18.20
2022-10-31T21:28:45.111Z,18.20
2022-10-31T21:31:14.866Z,18.10
2022-10-31T21:33:43.476Z,18.10
2022-10-31T21:36:12.577Z,17.80
2022-10-31T21:38:40.021Z,17.70
2022-10-31T21:41:13.365Z,17.60
2022-10-31T21:43:45.148Z,17.60
2022-10-31T21:46:21.155Z,17.50
2022-10-31T21:48:49.086Z,17.50
2022-10-31T21:51:22.211Z,17.50
2022-10-31T21:54:08.075Z,17.60
2022-10-31T21:56:35.180Z,17.50
2022-10-31T21:59:02.771Z,17.50
2022-10-31T22:01:30.077Z,17.50
2022-10-31T22:03:58.807Z,17.40
2022-10-31T22:06:26.898Z,17.40
2022-10-31T22:08:54.912Z,17.50
2022-10-31T22:11:23.160Z,17.50
2022-10-31T22:13:50.988Z,17.50
2022-10-31T22:16:20.180Z,17.60
2022-10-31T22:18:47.987Z,17.60
2022-10-31T22:21:19.242Z,17.70
2022-10-31T22:23:51.552Z,17.70
2022-10-31T22:26:18.884Z,17.70
2022-10-31T22:28:48.349Z,17.70
2022-10-31T22:31:18.108Z,17.70
2022-10-31T22:33:46.317Z,17.70
2022-10-31T22:36:15.415Z,17.70
2022-10-31T22:38:42.984Z,17.70
2022-10-31T22:41:12.512Z,17.70
2022-10-31T22:43:39.468Z,17.70
2022-10-31T22:46:08.568Z,17.70
2022-10-31T22:48:42.636Z,17.70
2022-10-31T22:51:12.334Z,17.80
2022-10-31T22:53:39.758Z,17.70
2022-10-31T22:56:08.345Z,17.70
2022-10-31T22:58:35.993Z,17.70
2022-10-31T23:01:15.247Z,17.80
2022-10-31T23:03:43.109Z,17.70
2022-10-31T23:06:15.309Z,17.80
2022-10-31T23:08:42.961Z,17.70
2022-10-31T23:11:26.553Z,17.80
2022-10-31T23:14:13.810Z,17.80
2022-10-31T23:16:43.917Z,17.80
2022-10-31T23:19:15.693Z,17.80
2022-10-31T23:22:00.111Z,17.80
2022-10-31T23:24:36.926Z,17.70
2022-10-31T23:27:07.535Z,17.70
2022-10-31T23:29:41.985Z,17.80
2022-10-31T23:32:12.201Z,17.90
2022-10-31T23:34:39.349Z,17.80
2022-10-31T23:39:34.883Z,17.90
2022-10-31T23:42:02.090Z,17.80
2022-10-31T23:44:29.000Z,17.80
2022-10-31T23:46:55.883Z,17.90
2022-10-31T23:49:22.669Z,18.00
2022-10-31T23:51:49.647Z,18.00
2022-10-31T23:54:16.670Z,18.00
2022-10-31T23:56:43.705Z,18.10
2022-10-31T23:59:10.652Z,18.10
